Time,TemperatureF,DewpointF,PressureIn,WindDirection,WindDirectionDegrees,WindSpeedMPH,WindSpeedGustMPH,Humidity,HourlyPrecipIn,Conditions,Clouds,dailyrainin,SolarRadiationWatts/m^2,SoftwareType,DateUTC
2013-05-27 00:21:00,43.0,40.0,-100.00,North,354,5.0,34.0,88,0.02,,,0.02,0.000000,,2013-05-27 06:21:00,
2013-05-27 00:32:00,43.0,40.0,-100.00,North,354,5.0,34.0,88,0.02,,,0.02,0.000000,,2013-05-27 06:32:00,
2013-05-27 00:41:00,43.0,40.0,-100.00,North,354,5.0,34.0,88,0.02,,,0.02,0.000000,,2013-05-27 06:41:00,
2013-05-27 00:52:00,43.0,40.0,-100.00,North,354,5.0,34.0,88,0.02,,,0.02,0.000000,,2013-05-27 06:52:00,
2013-05-27 01:21:00,44.0,40.0,-100.00,ENE,66,8.0,15.0,86,0.00,,,0.02,1.000000,,2013-05-27 07:21:00,
2013-05-27 01:31:00,44.0,40.0,-100.00,ENE,66,8.0,15.0,86,0.00,,,0.02,1.000000,,2013-05-27 07:31:00,
2013-05-27 01:41:00,44.0,40.0,-100.00,ENE,66,8.0,15.0,86,0.00,,,0.02,1.000000,,2013-05-27 07:41:00,
2013-05-27 01:52:00,44.0,40.0,-100.00,ENE,66,8.0,15.0,86,0.00,,,0.02,1.000000,,2013-05-27 07:52:00,
2013-05-27 02:21:00,43.0,41.0,-100.00,NW,320,3.0,10.0,92,0.01,,,0.03,1.000000,,2013-05-27 08:21:00,
2013-05-27 02:32:00,43.0,41.0,-100.00,NW,320,3.0,10.0,92,0.01,,,0.03,1.000000,,2013-05-27 08:32:00,
2013-05-27 02:42:00,43.0,41.0,-100.00,NW,320,3.0,10.0,92,0.01,,,0.03,1.000000,,2013-05-27 08:42:00,
2013-05-27 02:52:00,43.0,41.0,-100.00,NW,320,3.0,10.0,92,0.01,,,0.03,1.000000,,2013-05-27 08:52:00,
2013-05-27 03:21:00,42.0,40.0,-100.00,WNW,285,4.0,9.0,92,0.00,,,0.03,0.000000,,2013-05-27 09:21:00,
2013-05-27 03:33:00,42.0,40.0,-100.00,WNW,285,4.0,9.0,92,0.00,,,0.03,0.000000,,2013-05-27 09:33:00,
2013-05-27 03:42:00,42.0,40.0,-100.00,WNW,285,4.0,9.0,92,0.00,,,0.03,0.000000,,2013-05-27 09:42:00,
2013-05-27 03:52:00,42.0,40.0,-100.00,WNW,285,4.0,9.0,92,0.00,,,0.03,0.000000,,2013-05-27 09:52:00,
2013-05-27 04:22:00,42.0,41.0,-100.00,ENE,71,1.0,5.0,97,0.03,,,0.06,1.000000,,2013-05-27 10:22:00,
2013-05-27 04:32:00,42.0,41.0,-100.00,ENE,71,1.0,5.0,97,0.03,,,0.06,1.000000,,2013-05-27 10:32:00,
2013-05-27 04:42:00,42.0,41.0,-100.00,ENE,71,1.0,5.0,97,0.03,,,0.06,1.000000,,2013-05-27 10:42:00,
2013-05-27 04:52:00,42.0,41.0,-100.00,ENE,71,1.0,5.0,97,0.03,,,0.06,1.000000,,2013-05-27 10:52:00,
2013-05-27 05:21:00,41.0,40.0,-100.00,NW,308,2.0,5.0,97,0.00,,,0.06,1.000000,,2013-05-27 11:21:00,
2013-05-27 05:32:00,41.0,40.0,-100.00,NW,308,2.0,5.0,97,0.00,,,0.06,1.000000,,2013-05-27 11:32:00,
2013-05-27 05:42:00,41.0,40.0,-100.00,NW,308,2.0,5.0,97,0.00,,,0.06,1.000000,,2013-05-27 11:42:00,
2013-05-27 05:51:00,41.0,40.0,-100.00,NW,308,2.0,5.0,97,0.00,,,0.06,1.000000,,2013-05-27 11:51:00,
2013-05-27 06:21:00,39.0,38.0,-100.00,NW,311,2.0,6.0,98,0.00,,,0.06,2.000000,,2013-05-27 12:21:00,
2013-05-27 06:32:00,39.0,38.0,-100.00,NW,311,2.0,6.0,98,0.00,,,0.06,2.000000,,2013-05-27 12:32:00,
2013-05-27 06:42:00,39.0,38.0,-100.00,NW,311,2.0,6.0,98,0.00,,,0.06,2.000000,,2013-05-27 12:42:00,
2013-05-27 06:52:00,39.0,38.0,-100.00,NW,311,2.0,6.0,98,0.00,,,0.06,2.000000,,2013-05-27 12:52:00,
2013-05-27 07:21:00,41.0,40.0,-100.00,SE,140,2.0,4.0,98,0.01,,,0.07,62.000000,,2013-05-27 13:21:00,
2013-05-27 07:32:00,41.0,40.0,-100.00,SE,140,2.0,4.0,98,0.01,,,0.07,62.000000,,2013-05-27 13:32:00,
2013-05-27 07:41:00,41.0,40.0,-100.00,SE,140,2.0,4.0,98,0.01,,,0.07,62.000000,,2013-05-27 13:41:00,
2013-05-27 07:52:00,41.0,40.0,-100.00,SE,140,2.0,4.0,98,0.01,,,0.07,62.000000,,2013-05-27 13:52:00,
2013-05-27 08:21:00,43.0,42.0,-100.00,SSE,149,4.0,6.0,98,0.00,,,0.07,85.000000,,2013-05-27 14:21:00,
2013-05-27 08:32:00,43.0,42.0,-100.00,SSE,149,4.0,6.0,98,0.00,,,0.07,85.000000,,2013-05-27 14:32:00,
2013-05-27 08:42:00,43.0,42.0,-100.00,SSE,149,4.0,6.0,98,0.00,,,0.07,85.000000,,2013-05-27 14:42:00,
2013-05-27 08:51:00,43.0,42.0,-100.00,SSE,149,4.0,6.0,98,0.00,,,0.07,85.000000,,2013-05-27 14:51:00,
2013-05-27 09:21:00,49.0,38.0,-100.00,SSW,213,11.0,19.0,66,0.00,,,0.07,355.000000,,2013-05-27 15:21:00,
2013-05-27 09:33:00,49.0,38.0,-100.00,SSW,213,11.0,19.0,66,0.00,,,0.07,355.000000,,2013-05-27 15:33:00,
2013-05-27 09:43:00,49.0,38.0,-100.00,SSW,213,11.0,19.0,66,0.00,,,0.07,355.000000,,2013-05-27 15:43:00,
2013-05-27 09:53:00,49.0,38.0,-100.00,SSW,213,11.0,19.0,66,0.00,,,0.07,355.000000,,2013-05-27 15:53:00,
2013-05-27 10:23:00,49.0,26.0,-100.00,SSW,213,14.0,24.0,40,0.00,,,0.07,628.000000,,2013-05-27 16:23:00,
2013-05-27 10:42:00,49.0,26.0,-100.00,SSW,213,14.0,24.0,40,0.00,,,0.07,628.000000,,2013-05-27 16:42:00,
2013-05-27 10:52:00,49.0,26.0,-100.00,SSW,213,14.0,24.0,40,0.00,,,0.07,628.000000,,2013-05-27 16:52:00,
2013-05-27 11:22:00,49.0,29.0,-100.00,SSW,205,15.0,25.0,45,0.00,,,0.07,772.000000,,2013-05-27 17:22:00,
2013-05-27 11:32:00,49.0,29.0,-100.00,SSW,205,15.0,25.0,45,0.00,,,0.07,772.000000,,2013-05-27 17:32:00,
2013-05-27 11:43:00,49.0,29.0,-100.00,SSW,205,15.0,25.0,45,0.00,,,0.07,772.000000,,2013-05-27 17:43:00,
2013-05-27 11:52:00,49.0,29.0,-100.00,SSW,205,15.0,25.0,45,0.00,,,0.07,772.000000,,2013-05-27 17:52:00,
2013-05-27 12:21:00,52.0,30.0,-100.00,South,188,15.0,24.0,43,0.00,,,0.07,755.000000,,2013-05-27 18:21:00,
2013-05-27 12:32:00,52.0,30.0,-100.00,South,188,15.0,24.0,43,0.00,,,0.07,755.000000,,2013-05-27 18:32:00,
2013-05-27 12:42:00,52.0,30.0,-100.00,South,188,15.0,24.0,43,0.00,,,0.07,755.000000,,2013-05-27 18:42:00,
2013-05-27 12:52:00,52.0,30.0,-100.00,South,188,15.0,24.0,43,0.00,,,0.07,755.000000,,2013-05-27 18:52:00,
2013-05-27 13:21:00,53.0,29.0,-100.00,SSW,198,15.0,23.0,40,0.00,,,0.07,886.000000,,2013-05-27 19:21:00,
2013-05-27 13:32:00,53.0,29.0,-100.00,SSW,198,15.0,23.0,40,0.00,,,0.07,886.000000,,2013-05-27 19:32:00,
2013-05-27 13:41:00,53.0,29.0,-100.00,SSW,198,15.0,23.0,40,0.00,,,0.07,886.000000,,2013-05-27 19:41:00,
2013-05-27 13:52:00,53.0,29.0,-100.00,SSW,198,15.0,23.0,40,0.00,,,0.07,886.000000,,2013-05-27 19:52:00,
2013-05-27 14:22:00,53.0,28.0,-100.00,SSW,206,10.0,25.0,38,0.00,,,0.07,887.000000,,2013-05-27 20:22:00,
2013-05-27 14:32:00,53.0,28.0,-100.00,SSW,206,10.0,25.0,38,0.00,,,0.07,887.000000,,2013-05-27 20:32:00,
2013-05-27 14:42:00,53.0,28.0,-100.00,SSW,206,10.0,25.0,38,0.00,,,0.07,887.000000,,2013-05-27 20:42:00,
2013-05-27 14:52:00,53.0,28.0,-100.00,SSW,206,10.0,25.0,38,0.00,,,0.07,887.000000,,2013-05-27 20:52:00,
2013-05-27 15:21:00,56.0,29.0,-100.00,SSW,195,11.0,27.0,35,0.00,,,0.07,925.000000,,2013-05-27 21:21:00,
2013-05-27 15:33:00,56.0,29.0,-100.00,SSW,195,11.0,27.0,35,0.00,,,0.07,925.000000,,2013-05-27 21:33:00,
2013-05-27 15:43:00,56.0,29.0,-100.00,SSW,195,11.0,27.0,35,0.00,,,0.07,925.000000,,2013-05-27 21:43:00,
2013-05-27 15:53:00,56.0,29.0,-100.00,SSW,195,11.0,27.0,35,0.00,,,0.07,925.000000,,2013-05-27 21:53:00,
2013-05-27 16:22:00,57.0,28.0,-100.00,SW,214,8.0,20.0,33,0.00,,,0.07,829.000000,,2013-05-27 22:22:00,
2013-05-27 16:32:00,57.0,28.0,-100.00,SW,214,8.0,20.0,33,0.00,,,0.07,829.000000,,2013-05-27 22:32:00,
2013-05-27 16:42:00,57.0,28.0,-100.00,SW,214,8.0,20.0,33,0.00,,,0.07,829.000000,,2013-05-27 22:42:00,
2013-05-27 16:52:00,57.0,28.0,-100.00,SW,214,8.0,20.0,33,0.00,,,0.07,829.000000,,2013-05-27 22:52:00,
2013-05-27 17:22:00,56.0,27.0,-100.00,WSW,257,7.0,17.0,32,0.00,,,0.07,670.000000,,2013-05-27 23:22:00,
2013-05-27 17:32:00,56.0,27.0,-100.00,WSW,257,7.0,17.0,32,0.00,,,0.07,670.000000,,2013-05-27 23:32:00,
2013-05-27 17:42:00,56.0,27.0,-100.00,WSW,257,7.0,17.0,32,0.00,,,0.07,670.000000,,2013-05-27 23:42:00,
2013-05-27 17:52:00,56.0,27.0,-100.00,WSW,257,7.0,17.0,32,0.00,,,0.07,670.000000,,2013-05-27 23:52:00,
2013-05-27 18:21:00,57.0,28.0,-100.00,SSW,208,6.0,12.0,33,0.00,,,0.07,555.000000,,2013-05-28 00:21:00,
2013-05-27 18:31:00,57.0,28.0,-100.00,SSW,208,6.0,12.0,33,0.00,,,0.07,555.000000,,2013-05-28 00:31:00,
2013-05-27 18:41:00,57.0,28.0,-100.00,SSW,208,6.0,12.0,33,0.00,,,0.07,555.000000,,2013-05-28 00:41:00,
2013-05-27 18:51:00,57.0,28.0,-100.00,SSW,208,6.0,12.0,33,0.00,,,0.07,555.000000,,2013-05-28 00:51:00,
2013-05-27 19:21:00,55.0,27.0,-100.00,SW,218,5.0,13.0,34,0.00,,,0.07,324.000000,,2013-05-28 01:21:00,
2013-05-27 19:31:00,55.0,27.0,-100.00,SW,218,5.0,13.0,34,0.00,,,0.07,324.000000,,2013-05-28 01:31:00,
2013-05-27 19:41:00,55.0,27.0,-100.00,SW,218,5.0,13.0,34,0.00,,,0.07,324.000000,,2013-05-28 01:41:00,
2013-05-27 19:52:00,55.0,27.0,-100.00,SW,218,5.0,13.0,34,0.00,,,0.07,324.000000,,2013-05-28 01:52:00,
2013-05-27 20:21:00,53.0,30.0,-100.00,SW,214,3.0,7.0,41,0.00,,,0.07,117.000000,,2013-05-28 02:21:00,
2013-05-27 20:32:00,53.0,30.0,-100.00,SW,214,3.0,7.0,41,0.00,,,0.07,117.000000,,2013-05-28 02:32:00,
2013-05-27 20:41:00,53.0,30.0,-100.00,SW,214,3.0,7.0,41,0.00,,,0.07,117.000000,,2013-05-28 02:41:00,
2013-05-27 20:51:00,53.0,30.0,-100.00,SW,214,3.0,7.0,41,0.00,,,0.07,117.000000,,2013-05-28 02:51:00,
2013-05-27 21:21:00,47.0,32.0,-100.00,West,266,1.0,5.0,55,0.00,,,0.07,25.000000,,2013-05-28 03:21:00,
2013-05-27 21:33:00,47.0,32.0,-100.00,West,266,1.0,5.0,55,0.00,,,0.07,25.000000,,2013-05-28 03:33:00,
2013-05-27 21:43:00,47.0,32.0,-100.00,West,266,1.0,5.0,55,0.00,,,0.07,25.000000,,2013-05-28 03:43:00,
2013-05-27 21:53:00,47.0,32.0,-100.00,West,266,1.0,5.0,55,0.00,,,0.07,25.000000,,2013-05-28 03:53:00,
2013-05-27 22:22:00,44.0,34.0,-100.00,West,280,1.0,4.0,67,0.00,,,0.07,1.000000,,2013-05-28 04:22:00,
2013-05-27 22:33:00,44.0,34.0,-100.00,West,280,1.0,4.0,67,0.00,,,0.07,1.000000,,2013-05-28 04:33:00,
2013-05-27 22:42:00,44.0,34.0,-100.00,West,280,1.0,4.0,67,0.00,,,0.07,1.000000,,2013-05-28 04:42:00,
2013-05-27 22:52:00,44.0,34.0,-100.00,West,280,1.0,4.0,67,0.00,,,0.07,1.000000,,2013-05-28 04:52:00,
2013-05-27 23:22:00,43.0,33.0,-100.00,WNW,302,2.0,3.0,68,0.00,,,0.07,0.000000,,2013-05-28 05:22:00,
2013-05-27 23:32:00,43.0,33.0,-100.00,WNW,302,2.0,3.0,68,0.00,,,0.07,0.000000,,2013-05-28 05:32:00,
2013-05-27 23:42:00,43.0,33.0,-100.00,WNW,302,2.0,3.0,68,0.00,,,0.07,0.000000,,2013-05-28 05:42:00,
2013-05-27 23:52:00,43.0,33.0,-100.00,WNW,302,2.0,3.0,68,0.00,,,0.07,0.000000,,2013-05-28 05:52:00,